createdAt,value
2017-08-31T00:00:16.779Z,0
2017-08-31T00:01:14.997Z,0
2017-08-31T00:02:14.611Z,0
2017-08-31T00:03:15.229Z,0
2017-08-31T00:04:15.553Z,0
2017-08-31T00:05:17.279Z,0
2017-08-31T00:06:15.589Z,0
2017-08-31T00:07:15.548Z,0
2017-08-31T00:08:14.938Z,0
2017-08-31T00:09:15.257Z,0
2017-08-31T00:10:15.857Z,0
2017-08-31T00:11:15.303Z,0
2017-08-31T00:12:15.268Z,0
2017-08-31T00:13:14.952Z,0
2017-08-31T00:14:15.264Z,0
2017-08-31T00:15:16.668Z,0
2017-08-31T00:16:14.683Z,0
2017-08-31T00:17:15.288Z,0
2017-08-31T00:18:15.613Z,0
2017-08-31T00:19:15.283Z,0
2017-08-31T00:20:17.235Z,0
2017-08-31T00:21:15.338Z,0
2017-08-31T00:22:15.289Z,0
2017-08-31T00:23:14.989Z,0
2017-08-31T00:24:15.607Z,0
2017-08-31T00:25:17.238Z,0
2017-08-31T00:26:15.095Z,0
2017-08-31T00:27:15.009Z,0
2017-08-31T00:28:15.316Z,0
2017-08-31T00:29:18.230Z,0
2017-08-31T00:30:17.005Z,0
2017-08-31T00:31:14.772Z,0
2017-08-31T00:32:14.715Z,0
2017-08-31T00:33:15.639Z,0
2017-08-31T00:34:15.362Z,0
2017-08-31T00:35:17.676Z,0
2017-08-31T00:36:15.094Z,0
2017-08-31T00:37:15.353Z,0
2017-08-31T00:38:15.673Z,0
2017-08-31T00:39:15.354Z,0
2017-08-31T00:40:17.972Z,0
2017-08-31T00:41:15.103Z,0
2017-08-31T00:42:15.049Z,0
2017-08-31T00:43:15.682Z,0
2017-08-31T00:44:14.753Z,0
2017-08-31T00:45:16.473Z,0
2017-08-31T00:46:15.418Z,0
2017-08-31T00:47:15.380Z,0
2017-08-31T00:48:15.384Z,0
2017-08-31T00:49:15.109Z,0
2017-08-31T00:50:16.116Z,0
2017-08-31T00:51:15.420Z,0
2017-08-31T00:52:14.512Z,0
2017-08-31T00:53:15.402Z,0
2017-08-31T00:54:15.415Z,0
2017-08-31T00:55:15.940Z,0
2017-08-31T00:56:15.759Z,0
2017-08-31T00:57:15.101Z,0
2017-08-31T00:58:15.415Z,0
2017-08-31T00:59:15.732Z,0
2017-08-31T01:00:17.181Z,0
2017-08-31T01:01:15.497Z,0
2017-08-31T01:02:15.429Z,0
2017-08-31T01:03:15.133Z,0
2017-08-31T01:04:15.447Z,0
2017-08-31T01:05:17.749Z,0
2017-08-31T01:06:14.868Z,0
2017-08-31T01:07:15.460Z,0
2017-08-31T01:08:15.459Z,0
2017-08-31T01:09:15.772Z,0
2017-08-31T01:10:17.303Z,0
2017-08-31T01:11:14.858Z,0
2017-08-31T01:12:15.152Z,0
2017-08-31T01:13:15.161Z,0
2017-08-31T01:14:15.183Z,0
2017-08-31T01:15:21.842Z,0
2017-08-31T01:16:15.523Z,0
2017-08-31T01:17:15.481Z,0
2017-08-31T01:18:14.893Z,0
2017-08-31T01:19:15.796Z,0
2017-08-31T01:20:18.350Z,0
2017-08-31T01:21:15.845Z,0
2017-08-31T01:22:14.904Z,0
2017-08-31T01:23:15.522Z,0
2017-08-31T01:24:15.615Z,0
2017-08-31T01:25:18.518Z,0
2017-08-31T01:26:15.543Z,0
2017-08-31T01:27:14.908Z,0
2017-08-31T01:28:15.519Z,0
2017-08-31T01:29:15.530Z,0
2017-08-31T01:30:18.042Z,0
2017-08-31T01:31:15.603Z,0
2017-08-31T01:32:15.529Z,0
2017-08-31T01:33:15.238Z,0
2017-08-31T01:34:15.546Z,0
2017-08-31T01:35:16.903Z,0
2017-08-31T01:36:15.269Z,0
2017-08-31T01:37:15.235Z,0
2017-08-31T01:38:15.243Z,0
2017-08-31T01:39:15.557Z,0
2017-08-31T01:40:17.409Z,0
2017-08-31T01:41:14.988Z,0
2017-08-31T01:42:15.873Z,0
2017-08-31T01:43:15.258Z,0
2017-08-31T01:44:15.578Z,0
2017-08-31T01:45:17.130Z,0
2017-08-31T01:46:15.591Z,0
2017-08-31T01:47:15.589Z,0
2017-08-31T01:48:15.643Z,0
2017-08-31T01:49:15.927Z,0
2017-08-31T01:50:17.781Z,0
2017-08-31T01:51:15.305Z,0
2017-08-31T01:52:15.925Z,0
2017-08-31T01:53:15.647Z,0
2017-08-31T01:54:15.616Z,0
2017-08-31T01:55:16.657Z,0
2017-08-31T01:56:15.722Z,0
2017-08-31T01:57:15.621Z,0
2017-08-31T01:58:15.313Z,0
2017-08-31T01:59:15.938Z,0
2017-08-31T02:00:17.669Z,0
2017-08-31T02:01:20.674Z,0
2017-08-31T02:02:15.952Z,0
2017-08-31T02:03:15.954Z,0
2017-08-31T02:04:15.649Z,0
2017-08-31T02:05:18.239Z,0
2017-08-31T02:06:16.032Z,0
2017-08-31T02:07:15.653Z,0
2017-08-31T02:08:15.978Z,0
2017-08-31T02:09:15.352Z,0
2017-08-31T02:10:17.826Z,0
2017-08-31T02:11:15.694Z,0
2017-08-31T02:12:15.978Z,0
2017-08-31T02:13:15.990Z,0
2017-08-31T02:14:15.687Z,0
2017-08-31T02:15:16.541Z,0
2017-08-31T02:16:15.418Z,0
2017-08-31T02:17:15.684Z,0
2017-08-31T02:18:15.999Z,0
2017-08-31T02:19:15.717Z,0
2017-08-31T02:20:16.981Z,0
2017-08-31T02:21:15.714Z,0
2017-08-31T02:22:16.032Z,0
2017-08-31T02:23:16.031Z,0
2017-08-31T02:24:16.021Z,0
2017-08-31T02:25:17.041Z,0
2017-08-31T02:26:15.464Z,0
2017-08-31T02:27:15.413Z,0
2017-08-31T02:28:16.035Z,0
2017-08-31T02:29:15.732Z,0
2017-08-31T02:30:17.652Z,0
2017-08-31T02:31:17.815Z,0
2017-08-31T02:32:16.047Z,0
2017-08-31T02:33:15.431Z,0
2017-08-31T02:34:16.073Z,0
2017-08-31T02:35:18.063Z,0
2017-08-31T02:36:15.471Z,0
2017-08-31T02:37:15.447Z,0
2017-08-31T02:38:16.084Z,0
2017-08-31T02:39:15.774Z,0
2017-08-31T02:40:17.497Z,0
2017-08-31T02:41:15.161Z,0
2017-08-31T02:42:16.092Z,0
2017-08-31T02:43:15.780Z,0
2017-08-31T02:44:16.088Z,0
2017-08-31T02:45:18.202Z,0
2017-08-31T02:46:16.110Z,0
2017-08-31T02:47:16.107Z,0
2017-08-31T02:48:16.115Z,0
2017-08-31T02:49:15.796Z,0
2017-08-31T02:50:17.953Z,0
2017-08-31T02:51:15.805Z,0
2017-08-31T02:52:15.496Z,0
2017-08-31T02:53:16.122Z,0
2017-08-31T02:54:16.122Z,0
2017-08-31T02:55:17.336Z,0
2017-08-31T02:56:15.880Z,0
2017-08-31T02:57:15.827Z,0
2017-08-31T02:58:15.824Z,0
2017-08-31T02:59:15.843Z,0
2017-08-31T03:00:17.813Z,0
2017-08-31T03:01:16.241Z,0
2017-08-31T03:02:17.752Z,0
2017-08-31T03:03:16.157Z,0
2017-08-31T03:04:15.846Z,0
2017-08-31T03:05:17.792Z,0
2017-08-31T03:06:15.920Z,0
2017-08-31T03:07:15.851Z,0
2017-08-31T03:08:16.173Z,0
2017-08-31T03:09:15.862Z,0
2017-08-31T03:10:17.318Z,0
2017-08-31T03:11:15.561Z,0
2017-08-31T03:12:15.569Z,0
2017-08-31T03:13:15.876Z,0
2017-08-31T03:14:16.184Z,0
2017-08-31T03:15:17.849Z,0
2017-08-31T03:16:15.939Z,0
2017-08-31T03:17:15.793Z,0
2017-08-31T03:18:15.894Z,0
2017-08-31T03:19:15.594Z,0
2017-08-31T03:20:17.887Z,0
2017-08-31T03:21:16.783Z,0
2017-08-31T03:22:15.631Z,0
2017-08-31T03:23:15.899Z,0
2017-08-31T03:24:15.919Z,0
2017-08-31T03:25:17.726Z,0
2017-08-31T03:26:15.991Z,0
2017-08-31T03:27:15.924Z,0
2017-08-31T03:28:15.954Z,0
2017-08-31T03:29:15.944Z,0
2017-08-31T03:30:17.904Z,0
2017-08-31T03:31:16.270Z,0
2017-08-31T03:32:16.444Z,0
2017-08-31T03:33:15.639Z,0
2017-08-31T03:34:16.256Z,0
2017-08-31T03:35:18.159Z,0
2017-08-31T03:36:16.298Z,0
2017-08-31T03:37:16.257Z,0
2017-08-31T03:38:15.660Z,0
2017-08-31T03:39:15.960Z,0
2017-08-31T03:40:17.267Z,0
2017-08-31T03:41:15.431Z,0
2017-08-31T03:42:15.655Z,0
2017-08-31T03:43:16.280Z,0
2017-08-31T03:44:16.278Z,0
2017-08-31T03:45:17.980Z,0
2017-08-31T03:46:16.334Z,0
2017-08-31T03:47:15.988Z,0
2017-08-31T03:48:16.304Z,0
2017-08-31T03:49:15.684Z,0
2017-08-31T03:50:18.352Z,0
2017-08-31T03:51:16.045Z,0
2017-08-31T03:52:16.330Z,0
2017-08-31T03:53:15.691Z,0
2017-08-31T03:54:15.717Z,0
2017-08-31T03:55:18.017Z,0
2017-08-31T03:56:16.338Z,0
2017-08-31T03:57:16.013Z,0
2017-08-31T03:58:16.017Z,0
2017-08-31T03:59:16.017Z,0
2017-08-31T04:00:18.350Z,0
2017-08-31T04:01:16.378Z,0
2017-08-31T04:02:16.019Z,0
2017-08-31T04:03:16.042Z,0
2017-08-31T04:04:15.414Z,0
2017-08-31T04:05:16.921Z,0
2017-08-31T04:06:16.125Z,0
2017-08-31T04:07:16.040Z,0
2017-08-31T04:08:16.356Z,0
2017-08-31T04:09:16.359Z,0
2017-08-31T04:10:17.525Z,0
2017-08-31T04:11:16.159Z,0
2017-08-31T04:12:15.763Z,0
2017-08-31T04:13:16.063Z,0
2017-08-31T04:14:16.067Z,0
2017-08-31T04:15:17.906Z,0
2017-08-31T04:16:15.792Z,0
2017-08-31T04:17:16.068Z,0
2017-08-31T04:18:16.081Z,0
2017-08-31T04:19:16.092Z,0
2017-08-31T04:20:17.943Z,0
2017-08-31T04:21:15.829Z,0
2017-08-31T04:22:16.096Z,0
2017-08-31T04:23:16.413Z,0
2017-08-31T04:24:15.790Z,0
2017-08-31T04:25:17.280Z,0
2017-08-31T04:26:16.500Z,0
2017-08-31T04:27:15.174Z,0
2017-08-31T04:28:15.803Z,0
2017-08-31T04:29:16.419Z,0
2017-08-31T04:30:18.528Z,0
2017-08-31T04:31:16.203Z,0
2017-08-31T04:32:17.435Z,0
2017-08-31T04:33:16.119Z,0
2017-08-31T04:34:16.125Z,0
2017-08-31T04:35:17.878Z,0
2017-08-31T04:36:16.447Z,0
2017-08-31T04:37:15.836Z,0
2017-08-31T04:38:16.145Z,0
2017-08-31T04:39:16.443Z,0
2017-08-31T04:40:18.259Z,0
2017-08-31T04:41:16.185Z,0
2017-08-31T04:42:16.456Z,0
2017-08-31T04:43:16.149Z,0
2017-08-31T04:44:15.849Z,0
2017-08-31T04:45:17.509Z,0
2017-08-31T04:46:15.629Z,0
2017-08-31T04:47:16.471Z,0
2017-08-31T04:48:15.862Z,5
2017-08-31T04:49:16.175Z,5
2017-08-31T04:50:17.830Z,5
2017-08-31T04:51:16.225Z,5
2017-08-31T04:52:16.194Z,5
2017-08-31T04:53:15.883Z,10
2017-08-31T04:54:16.538Z,10
2017-08-31T04:55:18.251Z,15
2017-08-31T04:56:16.269Z,15
2017-08-31T04:57:16.527Z,20
2017-08-31T04:58:16.203Z,20
2017-08-31T04:59:15.906Z,20
2017-08-31T05:00:17.815Z,25
2017-08-31T05:01:16.256Z,25
2017-08-31T05:02:16.114Z,25
2017-08-31T05:03:16.905Z,30
2017-08-31T05:04:15.911Z,30
2017-08-31T05:05:17.806Z,30
2017-08-31T05:06:16.321Z,30
2017-08-31T05:07:16.246Z,30
2017-08-31T05:08:16.541Z,30
2017-08-31T05:09:16.242Z,30
2017-08-31T05:10:18.381Z,35
2017-08-31T05:11:16.552Z,35
2017-08-31T05:12:16.261Z,35
2017-08-31T05:13:15.946Z,35
2017-08-31T05:14:16.590Z,35
2017-08-31T05:15:16.907Z,30
2017-08-31T05:16:16.274Z,30
2017-08-31T05:17:16.318Z,30
2017-08-31T05:18:15.965Z,30
2017-08-31T05:19:16.270Z,30
2017-08-31T05:20:17.224Z,40
2017-08-31T05:21:16.669Z,40
2017-08-31T05:22:16.295Z,40
2017-08-31T05:23:16.307Z,45
2017-08-31T05:24:16.003Z,40
2017-08-31T05:25:17.838Z,40
2017-08-31T05:26:16.318Z,40
2017-08-31T05:27:16.314Z,40
2017-08-31T05:28:16.624Z,35
2017-08-31T05:29:16.314Z,30
2017-08-31T05:30:16.861Z,30
2017-08-31T05:31:16.315Z,30
2017-08-31T05:32:17.912Z,25
2017-08-31T05:33:16.321Z,20
2017-08-31T05:34:16.331Z,10
2017-08-31T05:35:17.930Z,10
2017-08-31T05:36:16.372Z,15
2017-08-31T05:37:16.336Z,20
2017-08-31T05:38:16.354Z,25
2017-08-31T05:39:16.362Z,35
2017-08-31T05:40:17.970Z,45
2017-08-31T05:41:16.364Z,55
2017-08-31T05:42:15.743Z,60
2017-08-31T05:43:16.671Z,60
2017-08-31T05:44:16.674Z,65
2017-08-31T05:45:17.746Z,70
2017-08-31T05:46:16.106Z,70
2017-08-31T05:47:16.372Z,65
2017-08-31T05:48:16.379Z,60
2017-08-31T05:49:16.067Z,50
2017-08-31T05:50:18.720Z,50
2017-08-31T05:51:16.691Z,35
2017-08-31T05:52:16.395Z,15
2017-08-31T05:53:16.397Z,10
2017-08-31T05:54:16.719Z,5
2017-08-31T05:55:18.089Z,0
2017-08-31T05:56:16.469Z,0
2017-08-31T05:57:16.408Z,5
2017-08-31T05:58:16.418Z,5
2017-08-31T05:59:16.412Z,5
2017-08-31T06:00:16.863Z,5
2017-08-31T06:01:16.191Z,5
2017-08-31T06:02:16.117Z,5
2017-08-31T06:03:16.432Z,5
2017-08-31T06:04:16.112Z,5
2017-08-31T06:05:17.959Z,10
2017-08-31T06:06:16.801Z,10
2017-08-31T06:07:16.744Z,10
2017-08-31T06:08:16.436Z,15
2017-08-31T06:09:16.449Z,15
2017-08-31T06:10:17.910Z,15
2017-08-31T06:11:16.193Z,15
2017-08-31T06:12:16.450Z,20
2017-08-31T06:13:16.152Z,20
2017-08-31T06:14:16.139Z,20
2017-08-31T06:15:18.457Z,20
2017-08-31T06:16:16.494Z,25
2017-08-31T06:17:16.149Z,30
2017-08-31T06:18:16.156Z,35
2017-08-31T06:19:16.155Z,40
2017-08-31T06:20:18.430Z,45
2017-08-31T06:21:16.192Z,45
2017-08-31T06:22:16.470Z,50
2017-08-31T06:23:16.480Z,50
2017-08-31T06:24:16.793Z,50
2017-08-31T06:25:18.649Z,55
2017-08-31T06:26:16.848Z,50
2017-08-31T06:27:16.795Z,50
2017-08-31T06:28:16.806Z,45
2017-08-31T06:29:16.498Z,50
2017-08-31T06:30:18.172Z,55
2017-08-31T06:31:16.848Z,55
2017-08-31T06:32:16.500Z,55
2017-08-31T06:33:16.826Z,55
2017-08-31T06:34:16.505Z,50
2017-08-31T06:35:17.351Z,50
2017-08-31T06:36:16.524Z,50
2017-08-31T06:37:16.514Z,50
2017-08-31T06:38:16.528Z,55
2017-08-31T06:39:15.919Z,55
2017-08-31T06:40:17.980Z,55
2017-08-31T06:41:16.260Z,55
2017-08-31T06:42:16.225Z,55
2017-08-31T06:43:15.609Z,65
2017-08-31T06:44:16.840Z,80
2017-08-31T06:45:18.215Z,95
2017-08-31T06:46:16.863Z,105
2017-08-31T06:47:16.238Z,115
2017-08-31T06:48:22.076Z,130
2017-08-31T06:49:16.860Z,145
2017-08-31T06:50:17.817Z,165
2017-08-31T06:51:16.586Z,185
2017-08-31T06:52:16.255Z,190
2017-08-31T06:53:16.255Z,245
2017-08-31T06:54:16.878Z,195
2017-08-31T06:55:17.597Z,190
2017-08-31T06:56:16.585Z,185
2017-08-31T06:57:16.608Z,175
2017-08-31T06:58:16.591Z,165
2017-08-31T06:59:16.587Z,160
2017-08-31T07:00:17.986Z,165
2017-08-31T07:01:15.998Z,185
2017-08-31T07:02:16.597Z,190
2017-08-31T07:03:16.307Z,180
2017-08-31T07:04:16.614Z,165
2017-08-31T07:05:17.679Z,150
2017-08-31T07:06:16.067Z,140
2017-08-31T07:07:16.317Z,140
2017-08-31T07:08:16.329Z,150
2017-08-31T07:09:16.325Z,155
2017-08-31T07:10:17.351Z,155
2017-08-31T07:11:16.650Z,150
2017-08-31T07:12:16.337Z,150
2017-08-31T07:13:16.666Z,150
2017-08-31T07:14:16.366Z,150
2017-08-31T07:15:18.395Z,130
2017-08-31T07:16:16.063Z,110
2017-08-31T07:17:16.667Z,105
2017-08-31T07:18:17.190Z,105
2017-08-31T07:19:16.994Z,110
2017-08-31T07:20:18.279Z,105
2017-08-31T07:21:16.389Z,100
2017-08-31T07:22:16.685Z,90
2017-08-31T07:23:17.002Z,75
2017-08-31T07:24:16.429Z,70
2017-08-31T07:25:18.569Z,65
2017-08-31T07:26:16.750Z,65
2017-08-31T07:27:16.712Z,65
2017-08-31T07:28:16.711Z,70
2017-08-31T07:29:16.717Z,75
2017-08-31T07:30:18.250Z,85
2017-08-31T07:31:16.727Z,85
2017-08-31T07:32:16.103Z,95
2017-08-31T07:33:17.111Z,105
2017-08-31T07:34:16.730Z,125
2017-08-31T07:35:18.592Z,145
2017-08-31T07:36:16.531Z,150
2017-08-31T07:37:16.439Z,150
2017-08-31T07:38:16.752Z,140
2017-08-31T07:39:16.458Z,125
2017-08-31T07:40:17.805Z,105
2017-08-31T07:41:16.839Z,95
2017-08-31T07:42:16.771Z,95
2017-08-31T07:43:16.153Z,95
2017-08-31T07:44:16.771Z,100
2017-08-31T07:45:17.921Z,105
2017-08-31T07:46:16.565Z,125
2017-08-31T07:47:16.468Z,145
2017-08-31T07:48:16.480Z,165
2017-08-31T07:49:19.491Z,190
2017-08-31T07:50:18.447Z,205
2017-08-31T07:51:17.168Z,215
2017-08-31T07:52:16.833Z,230
2017-08-31T07:53:17.114Z,235
2017-08-31T07:54:16.808Z,235
2017-08-31T07:55:17.713Z,235
2017-08-31T07:56:16.839Z,235
2017-08-31T07:57:16.519Z,205
2017-08-31T07:58:16.524Z,205
2017-08-31T07:59:16.833Z,225
2017-08-31T08:00:18.363Z,235
2017-08-31T08:01:16.915Z,300
2017-08-31T08:02:16.236Z,330
2017-08-31T08:03:17.155Z,260
2017-08-31T08:04:17.214Z,210
2017-08-31T08:05:17.689Z,220
2017-08-31T08:06:16.578Z,175
2017-08-31T08:07:16.898Z,180
2017-08-31T08:08:16.573Z,215
2017-08-31T08:09:16.873Z,195
2017-08-31T08:10:18.028Z,210
2017-08-31T08:11:17.206Z,210
2017-08-31T08:12:16.590Z,195
2017-08-31T08:13:17.203Z,190
2017-08-31T08:14:17.214Z,170
2017-08-31T08:15:18.397Z,155
2017-08-31T08:16:16.628Z,135
2017-08-31T08:17:16.921Z,120
2017-08-31T08:18:16.915Z,120
2017-08-31T08:19:19.697Z,125
2017-08-31T08:20:18.598Z,110
2017-08-31T08:21:16.954Z,105
2017-08-31T08:22:16.327Z,105
2017-08-31T08:23:16.633Z,110
2017-08-31T08:24:16.667Z,110
2017-08-31T08:25:18.328Z,120
2017-08-31T08:26:16.659Z,130
2017-08-31T08:27:16.979Z,135
2017-08-31T08:28:17.290Z,135
2017-08-31T08:29:17.295Z,130
2017-08-31T08:30:18.731Z,130
2017-08-31T08:31:16.673Z,130
2017-08-31T08:32:17.001Z,115
2017-08-31T08:33:17.009Z,105
2017-08-31T08:34:17.305Z,95
2017-08-31T08:35:17.863Z,90
2017-08-31T08:36:17.392Z,85
2017-08-31T08:37:17.016Z,85
2017-08-31T08:38:16.396Z,85
2017-08-31T08:39:17.328Z,90
2017-08-31T08:40:18.594Z,100
2017-08-31T08:41:16.816Z,105
2017-08-31T08:42:16.732Z,115
2017-08-31T08:43:17.365Z,120
2017-08-31T08:44:17.363Z,120
2017-08-31T08:45:18.344Z,120
2017-08-31T08:46:17.456Z,120
2017-08-31T08:47:16.766Z,125
2017-08-31T08:48:17.370Z,135
2017-08-31T08:49:17.863Z,145
2017-08-31T08:50:18.742Z,150
2017-08-31T08:51:17.146Z,155
2017-08-31T08:52:16.770Z,165
2017-08-31T08:53:17.391Z,160
2017-08-31T08:54:16.771Z,160
2017-08-31T08:55:18.505Z,170
2017-08-31T08:56:17.434Z,195
2017-08-31T08:57:17.411Z,205
2017-08-31T08:58:16.789Z,210
2017-08-31T08:59:17.411Z,205
2017-08-31T09:00:18.355Z,205
2017-08-31T09:01:17.166Z,205
2017-08-31T09:02:17.432Z,190
2017-08-31T09:03:17.118Z,180
2017-08-31T09:04:17.128Z,165
2017-08-31T09:05:21.511Z,160
2017-08-31T09:06:17.496Z,170
2017-08-31T09:07:17.459Z,185
2017-08-31T09:08:17.148Z,210
2017-08-31T09:09:16.842Z,220
2017-08-31T09:10:19.679Z,230
2017-08-31T09:11:17.180Z,235
2017-08-31T09:12:17.157Z,245
2017-08-31T09:13:17.477Z,260
2017-08-31T09:14:17.171Z,285
2017-08-31T09:15:18.999Z,305
2017-08-31T09:16:16.622Z,310
2017-08-31T09:17:17.179Z,330
2017-08-31T09:18:17.181Z,345
2017-08-31T09:19:16.887Z,340
2017-08-31T09:20:20.216Z,325
2017-08-31T09:21:17.195Z,300
2017-08-31T09:22:16.891Z,260
2017-08-31T09:23:17.214Z,215
2017-08-31T09:24:16.912Z,155
2017-08-31T09:25:18.940Z,105
2017-08-31T09:26:16.958Z,85
2017-08-31T09:27:17.559Z,70
2017-08-31T09:28:16.925Z,65
2017-08-31T09:29:16.610Z,60
2017-08-31T09:30:18.288Z,60
2017-08-31T09:31:17.032Z,55
2017-08-31T09:32:16.945Z,50
2017-08-31T09:33:16.946Z,50
2017-08-31T09:34:16.963Z,55
2017-08-31T09:35:18.060Z,60
2017-08-31T09:36:17.282Z,65
2017-08-31T09:37:17.574Z,65
2017-08-31T09:38:16.661Z,70
2017-08-31T09:39:17.593Z,75
2017-08-31T09:40:18.543Z,85
2017-08-31T09:41:17.330Z,90
2017-08-31T09:42:17.284Z,100
2017-08-31T09:43:17.306Z,110
2017-08-31T09:44:16.684Z,105
2017-08-31T09:45:18.929Z,105
2017-08-31T09:46:17.344Z,110
2017-08-31T09:47:16.993Z,115
2017-08-31T09:48:17.309Z,125
2017-08-31T09:49:17.313Z,125
2017-08-31T09:50:23.415Z,120
2017-08-31T09:51:17.085Z,125
2017-08-31T09:52:17.336Z,125
2017-08-31T09:53:17.632Z,135
2017-08-31T09:54:17.020Z,140
2017-08-31T09:55:18.418Z,150
2017-08-31T09:56:17.671Z,155
2017-08-31T09:57:17.022Z,170
2017-08-31T09:58:17.045Z,165
2017-08-31T09:59:17.664Z,165
2017-08-31T10:00:19.335Z,165
2017-08-31T10:01:17.349Z,165
2017-08-31T10:02:17.685Z,160
2017-08-31T10:03:17.358Z,150
2017-08-31T10:04:17.666Z,140
2017-08-31T10:05:18.962Z,135
2017-08-31T10:06:17.402Z,135
2017-08-31T10:07:17.675Z,140
2017-08-31T10:08:17.377Z,140
2017-08-31T10:09:17.679Z,130
2017-08-31T10:10:18.419Z,130
2017-08-31T10:11:17.742Z,125
2017-08-31T10:12:17.383Z,120
2017-08-31T10:13:17.381Z,120
2017-08-31T10:14:17.091Z,105
2017-08-31T10:15:18.480Z,90
2017-08-31T10:16:17.446Z,85
2017-08-31T10:17:17.396Z,75
2017-08-31T10:18:17.410Z,70
2017-08-31T10:19:16.783Z,65
2017-08-31T10:20:18.717Z,65
2017-08-31T10:21:22.361Z,60
2017-08-31T10:22:17.419Z,55
2017-08-31T10:23:17.728Z,50
2017-08-31T10:24:17.740Z,50
2017-08-31T10:25:18.746Z,50
2017-08-31T10:26:17.463Z,50
2017-08-31T10:27:16.823Z,45
2017-08-31T10:28:17.430Z,45
2017-08-31T10:29:17.131Z,50
2017-08-31T10:30:18.220Z,55
2017-08-31T10:31:17.502Z,65
2017-08-31T10:32:17.442Z,70
2017-08-31T10:33:16.857Z,65
2017-08-31T10:34:17.156Z,65
2017-08-31T10:35:19.529Z,60
2017-08-31T10:36:17.825Z,60
2017-08-31T10:37:17.464Z,55
2017-08-31T10:38:17.549Z,60
2017-08-31T10:39:17.227Z,55
2017-08-31T10:40:19.593Z,55
2017-08-31T10:41:17.180Z,55
2017-08-31T10:42:17.468Z,55
2017-08-31T10:43:17.175Z,55
2017-08-31T10:44:17.165Z,50
2017-08-31T10:45:19.539Z,55
2017-08-31T10:46:17.562Z,60
2017-08-31T10:47:17.166Z,65
2017-08-31T10:48:17.495Z,75
2017-08-31T10:49:17.790Z,80
2017-08-31T10:50:19.690Z,90
2017-08-31T10:51:17.415Z,85
2017-08-31T10:52:17.242Z,85
2017-08-31T10:53:17.202Z,80
2017-08-31T10:54:17.187Z,85
2017-08-31T10:55:18.828Z,85
2017-08-31T10:56:17.258Z,85
2017-08-31T10:57:17.518Z,85
2017-08-31T10:58:17.855Z,80
2017-08-31T10:59:17.525Z,80
2017-08-31T11:00:18.448Z,90
2017-08-31T11:01:16.977Z,100
2017-08-31T11:02:17.521Z,105
2017-08-31T11:03:17.523Z,115
2017-08-31T11:04:17.564Z,125
2017-08-31T11:05:18.699Z,150
2017-08-31T11:06:17.961Z,170
2017-08-31T11:07:16.937Z,185
2017-08-31T11:08:17.864Z,210
2017-08-31T11:09:17.231Z,235
2017-08-31T11:10:19.726Z,270
2017-08-31T11:11:17.898Z,285
2017-08-31T11:12:17.289Z,290
2017-08-31T11:13:17.876Z,290
2017-08-31T11:14:17.567Z,285
2017-08-31T11:15:18.523Z,270
2017-08-31T11:16:17.960Z,275
2017-08-31T11:17:17.342Z,265
2017-08-31T11:18:17.256Z,270
2017-08-31T11:19:17.893Z,260
2017-08-31T11:20:18.765Z,250
2017-08-31T11:21:21.609Z,240
2017-08-31T11:22:17.276Z,235
2017-08-31T11:23:17.586Z,230
2017-08-31T11:24:17.579Z,220
2017-08-31T11:25:19.447Z,215
2017-08-31T11:26:17.954Z,205
2017-08-31T11:27:18.448Z,190
2017-08-31T11:28:18.452Z,185
2017-08-31T11:29:18.546Z,185
2017-08-31T11:30:20.333Z,170
2017-08-31T11:31:17.624Z,155
2017-08-31T11:32:17.470Z,165
2017-08-31T11:33:18.876Z,170
2017-08-31T11:34:18.391Z,175
2017-08-31T11:35:19.943Z,195
2017-08-31T11:36:17.756Z,225
2017-08-31T11:37:18.507Z,250
2017-08-31T11:38:17.944Z,260
2017-08-31T11:39:17.080Z,250
2017-08-31T11:40:19.334Z,230
2017-08-31T11:41:17.366Z,220
2017-08-31T11:42:17.023Z,240
2017-08-31T11:43:17.663Z,245
2017-08-31T11:44:17.662Z,235
2017-08-31T11:45:18.408Z,210
2017-08-31T11:46:17.740Z,185
2017-08-31T11:47:17.664Z,195
2017-08-31T11:48:17.663Z,210
2017-08-31T11:49:17.400Z,215
2017-08-31T11:50:17.824Z,215
2017-08-31T11:51:17.412Z,220
2017-08-31T11:52:17.677Z,220
2017-08-31T11:53:17.677Z,215
2017-08-31T11:54:17.731Z,210
2017-08-31T11:55:19.240Z,210
2017-08-31T11:56:18.077Z,210
2017-08-31T11:57:17.691Z,210
2017-08-31T11:58:17.075Z,210
2017-08-31T11:59:17.402Z,210
2017-08-31T12:00:18.803Z,220
2017-08-31T12:01:17.087Z,245
2017-08-31T12:02:17.400Z,255
2017-08-31T12:03:17.429Z,250
2017-08-31T12:04:18.026Z,245
2017-08-31T12:05:19.861Z,225
2017-08-31T12:06:17.797Z,205
2017-08-31T12:07:17.737Z,200
2017-08-31T12:08:17.415Z,205
2017-08-31T12:09:17.427Z,215
2017-08-31T12:10:19.576Z,225
2017-08-31T12:11:17.533Z,245
2017-08-31T12:12:17.737Z,260
2017-08-31T12:13:17.763Z,255
2017-08-31T12:14:17.439Z,260
2017-08-31T12:15:18.984Z,265
2017-08-31T12:16:17.174Z,270
2017-08-31T12:17:17.147Z,275
2017-08-31T12:18:17.756Z,290
2017-08-31T12:19:17.471Z,305
2017-08-31T12:20:19.981Z,305
2017-08-31T12:21:17.845Z,305
2017-08-31T12:22:18.072Z,310
2017-08-31T12:23:17.774Z,315
2017-08-31T12:24:17.780Z,315
2017-08-31T12:25:19.570Z,310
2017-08-31T12:26:18.133Z,315
2017-08-31T12:27:17.792Z,315
2017-08-31T12:28:17.872Z,315
2017-08-31T12:29:17.834Z,315
2017-08-31T12:30:19.416Z,300
2017-08-31T12:31:17.844Z,285
2017-08-31T12:32:17.844Z,265
2017-08-31T12:33:17.198Z,255
2017-08-31T12:34:17.808Z,255
2017-08-31T12:35:18.777Z,250
2017-08-31T12:36:17.582Z,250
2017-08-31T12:37:17.848Z,250
2017-08-31T12:38:17.525Z,255
2017-08-31T12:39:17.529Z,260
2017-08-31T12:40:18.632Z,265
2017-08-31T12:41:17.916Z,265
2017-08-31T12:42:17.843Z,250
2017-08-31T12:43:17.532Z,225
2017-08-31T12:44:17.853Z,205
2017-08-31T12:45:19.100Z,200
2017-08-31T12:46:17.916Z,200
2017-08-31T12:47:17.548Z,200
2017-08-31T12:48:17.865Z,200
2017-08-31T12:49:17.871Z,195
2017-08-31T12:50:19.062Z,190
2017-08-31T12:51:17.896Z,190
2017-08-31T12:52:20.819Z,185
2017-08-31T12:53:17.879Z,180
2017-08-31T12:54:17.570Z,175
2017-08-31T12:55:20.325Z,175
2017-08-31T12:56:17.924Z,170
2017-08-31T12:57:17.592Z,165
2017-08-31T12:58:17.926Z,165
2017-08-31T12:59:17.905Z,165
2017-08-31T13:00:19.247Z,170
2017-08-31T13:01:17.978Z,170
2017-08-31T13:02:17.286Z,170
2017-08-31T13:03:17.663Z,170
2017-08-31T13:04:17.640Z,170
2017-08-31T13:05:19.688Z,170
2017-08-31T13:06:18.020Z,170
2017-08-31T13:07:18.290Z,165
2017-08-31T13:08:17.967Z,160
2017-08-31T13:09:18.240Z,160
2017-08-31T13:10:19.953Z,155
2017-08-31T13:11:18.110Z,150
2017-08-31T13:12:17.641Z,145
2017-08-31T13:13:19.263Z,145
2017-08-31T13:14:17.952Z,140
2017-08-31T13:15:20.473Z,140
2017-08-31T13:16:17.782Z,145
2017-08-31T13:17:17.665Z,140
2017-08-31T13:18:17.966Z,135
2017-08-31T13:19:17.651Z,135
2017-08-31T13:20:19.264Z,130
2017-08-31T13:21:18.037Z,125
2017-08-31T13:22:17.351Z,125
2017-08-31T13:23:21.728Z,120
2017-08-31T13:24:17.977Z,115
2017-08-31T13:25:20.127Z,115
2017-08-31T13:26:18.081Z,110
2017-08-31T13:27:17.993Z,105
2017-08-31T13:28:18.013Z,105
2017-08-31T13:29:17.365Z,100
2017-08-31T13:30:20.062Z,105
2017-08-31T13:31:17.696Z,105
2017-08-31T13:32:18.320Z,105
2017-08-31T13:33:17.083Z,105
2017-08-31T13:34:18.017Z,105
2017-08-31T13:35:19.279Z,105
2017-08-31T13:36:18.048Z,110
2017-08-31T13:37:17.701Z,110
2017-08-31T13:38:17.730Z,110
2017-08-31T13:39:18.320Z,115
2017-08-31T13:40:19.146Z,115
2017-08-31T13:41:17.794Z,115
2017-08-31T13:42:17.740Z,110
2017-08-31T13:43:18.180Z,110
2017-08-31T13:44:18.059Z,110
2017-08-31T13:45:19.091Z,110
2017-08-31T13:46:17.477Z,110
2017-08-31T13:47:17.739Z,110
2017-08-31T13:48:17.737Z,110
2017-08-31T13:49:17.775Z,115
2017-08-31T13:50:19.578Z,110
2017-08-31T13:51:18.478Z,115
2017-08-31T13:52:17.425Z,120
2017-08-31T13:53:20.485Z,125
2017-08-31T13:54:18.051Z,130
2017-08-31T13:55:20.007Z,135
2017-08-31T13:56:17.765Z,135
2017-08-31T13:57:17.862Z,135
2017-08-31T13:58:18.070Z,135
2017-08-31T13:59:17.439Z,140
2017-08-31T14:00:19.283Z,135
2017-08-31T14:01:18.424Z,135
2017-08-31T14:02:17.757Z,130
2017-08-31T14:03:17.771Z,130
2017-08-31T14:04:18.074Z,125
2017-08-31T14:05:19.362Z,125
2017-08-31T14:06:18.413Z,125
2017-08-31T14:07:18.082Z,125
2017-08-31T14:08:18.079Z,130
2017-08-31T14:09:18.079Z,130
2017-08-31T14:10:18.750Z,135
2017-08-31T14:11:17.527Z,135
2017-08-31T14:12:17.785Z,135
2017-08-31T14:13:18.149Z,135